createdAt,value
2022-10-15T00:00:26.841Z,2.5
2022-10-15T00:01:35.256Z,2.5
2022-10-15T00:02:43.508Z,2.5
2022-10-15T00:03:52.101Z,2.7
2022-10-15T00:05:00.393Z,2.7
2022-10-15T00:06:08.778Z,2.7
2022-10-15T00:07:17.237Z,3
2022-10-15T00:08:25.557Z,3
2022-10-15T00:09:33.897Z,3
2022-10-15T00:10:42.428Z,2.8
2022-10-15T00:11:50.763Z,2.8
2022-10-15T00:12:59.118Z,2.8
2022-10-15T00:14:07.630Z,2.8
2022-10-15T00:15:15.955Z,2.8
2022-10-15T00:16:24.274Z,2.8
2022-10-15T00:17:32.796Z,2.7
2022-10-15T00:18:41.131Z,2.7
2022-10-15T00:19:49.440Z,2.7
2022-10-15T00:20:57.972Z,2.3
2022-10-15T00:22:06.316Z,2.3
2022-10-15T00:23:14.612Z,2.3
2022-10-15T00:24:23.152Z,2.1
2022-10-15T00:25:31.468Z,2.1
2022-10-15T00:26:39.800Z,2.1
2022-10-15T00:27:48.343Z,1.7
2022-10-15T00:28:56.692Z,1.7
2022-10-15T00:30:04.969Z,1.7
2022-10-15T00:31:13.499Z,1.7
2022-10-15T00:32:22.135Z,1.7
2022-10-15T00:33:30.155Z,1.7
2022-10-15T00:34:38.693Z,1.9
2022-10-15T00:35:47.008Z,1.9
2022-10-15T00:36:55.346Z,1.9
2022-10-15T00:38:03.908Z,1.8
2022-10-15T00:39:12.220Z,1.8
2022-10-15T00:40:20.551Z,1.8
2022-10-15T00:41:29.092Z,2.4
2022-10-15T00:42:37.421Z,2.4
2022-10-15T00:43:45.753Z,2.4
2022-10-15T00:44:54.277Z,2
2022-10-15T00:46:02.597Z,2
2022-10-15T00:47:10.915Z,2
2022-10-15T00:48:19.441Z,2.2
2022-10-15T00:49:27.757Z,2.2
2022-10-15T00:50:36.071Z,2.2
2022-10-15T00:51:44.619Z,2.4
2022-10-15T00:52:52.942Z,2.4
2022-10-15T00:54:01.286Z,2.4
2022-10-15T00:55:09.792Z,2.2
2022-10-15T00:56:18.102Z,2.2
2022-10-15T00:57:26.446Z,2.2
2022-10-15T00:58:34.968Z,2
2022-10-15T00:59:43.278Z,2
2022-10-15T01:00:51.632Z,2
2022-10-15T01:02:00.138Z,1.6
2022-10-15T01:03:08.459Z,1.6
2022-10-15T01:04:16.782Z,1.6
2022-10-15T01:05:25.323Z,1.7
2022-10-15T01:06:33.642Z,1.7
2022-10-15T01:07:41.962Z,1.7
2022-10-15T01:08:50.493Z,1.6
2022-10-15T01:09:58.832Z,1.6
2022-10-15T01:11:07.131Z,1.6
2022-10-15T01:12:15.670Z,1.7
2022-10-15T01:13:23.992Z,1.7
2022-10-15T01:14:32.305Z,1.7
2022-10-15T01:15:40.839Z,2
2022-10-15T01:16:49.167Z,2
2022-10-15T01:17:57.491Z,2
2022-10-15T01:19:06.013Z,2
2022-10-15T01:20:14.344Z,2
2022-10-15T01:21:22.657Z,2
2022-10-15T01:22:31.171Z,1.9
2022-10-15T01:23:39.492Z,1.9
2022-10-15T01:24:47.811Z,1.9
2022-10-15T01:25:56.370Z,1.7
2022-10-15T01:27:04.674Z,1.7
2022-10-15T01:28:12.979Z,1.7
2022-10-15T01:29:21.511Z,1.9
2022-10-15T01:30:29.836Z,1.9
2022-10-15T01:31:38.150Z,1.9
2022-10-15T01:32:46.689Z,1.2
2022-10-15T01:33:55.009Z,1.2
2022-10-15T01:35:03.323Z,1.2
2022-10-15T01:36:11.838Z,1.3
2022-10-15T01:37:20.377Z,1.3
2022-10-15T01:38:28.518Z,1.3
2022-10-15T01:39:37.037Z,1.4
2022-10-15T01:40:45.355Z,1.4
2022-10-15T01:41:53.723Z,1.4
2022-10-15T01:43:02.228Z,1.5
2022-10-15T01:44:10.550Z,1.5
2022-10-15T01:45:18.865Z,1.5
2022-10-15T01:46:27.397Z,1.5
2022-10-15T01:47:35.716Z,1.5
2022-10-15T01:48:44.590Z,1.5
2022-10-15T01:49:53.113Z,1.7
2022-10-15T01:51:01.435Z,1.7
2022-10-15T01:52:09.792Z,1.7
2022-10-15T01:53:18.319Z,1.6
2022-10-15T01:54:26.650Z,1.6
2022-10-15T01:55:34.987Z,1.6
2022-10-15T01:56:43.513Z,2.1
2022-10-15T01:57:51.853Z,2.1
2022-10-15T01:59:00.175Z,2.1
2022-10-15T02:00:08.691Z,1.9
2022-10-15T02:01:17.083Z,1.9
2022-10-15T02:02:25.649Z,1.9
2022-10-15T02:03:33.873Z,2.4
2022-10-15T02:04:42.184Z,2.4
2022-10-15T02:05:50.499Z,2.4
2022-10-15T02:06:59.054Z,3.1
2022-10-15T02:08:07.376Z,3.1
2022-10-15T02:09:15.699Z,3.1
2022-10-15T02:10:24.217Z,3.7
2022-10-15T02:11:32.549Z,3.7
2022-10-15T02:12:40.877Z,3.7
2022-10-15T02:13:49.415Z,3.7
2022-10-15T02:14:57.721Z,3.7
2022-10-15T02:16:06.049Z,3.7
2022-10-15T02:17:14.613Z,4.6
2022-10-15T02:18:22.932Z,4.6
2022-10-15T02:19:31.256Z,4.6
2022-10-15T02:20:39.787Z,4.5
2022-10-15T02:21:48.124Z,4.5
2022-10-15T02:22:56.432Z,4.5
2022-10-15T02:24:04.955Z,4.3
2022-10-15T02:25:13.281Z,4.3
2022-10-15T02:26:21.612Z,4.3
2022-10-15T02:27:30.139Z,3.9
2022-10-15T02:28:38.503Z,3.9
2022-10-15T02:29:46.807Z,3.9
2022-10-15T02:30:55.306Z,4.3
2022-10-15T02:32:03.656Z,4.3
2022-10-15T02:33:11.996Z,4.3
2022-10-15T02:34:20.525Z,3.7
2022-10-15T02:35:28.834Z,3.7
2022-10-15T02:36:37.175Z,3.7
2022-10-15T02:37:45.711Z,2.7
2022-10-15T02:38:54.022Z,2.7
2022-10-15T02:40:02.358Z,2.7
2022-10-15T02:41:10.911Z,2.7
2022-10-15T02:42:19.227Z,2.7
2022-10-15T02:43:27.550Z,2.7
2022-10-15T02:44:36.064Z,2.6
2022-10-15T02:45:44.402Z,2.6
2022-10-15T02:46:52.706Z,2.6
2022-10-15T02:48:01.230Z,2.6
2022-10-15T02:49:09.533Z,2.6
2022-10-15T02:50:17.872Z,2.6
2022-10-15T02:51:26.416Z,2.4
2022-10-15T02:52:34.732Z,2.4
2022-10-15T02:53:43.048Z,2.4
2022-10-15T02:54:51.582Z,2.3
2022-10-15T02:55:59.905Z,2.3
2022-10-15T02:57:08.225Z,2.3
2022-10-15T02:58:16.752Z,2.1
2022-10-15T02:59:25.074Z,2.1
2022-10-15T03:00:33.399Z,2.1
2022-10-15T03:01:41.956Z,2
2022-10-15T03:02:50.244Z,2
2022-10-15T03:03:58.561Z,2
2022-10-15T03:05:07.074Z,1.8
2022-10-15T03:06:17.664Z,1.8
2022-10-15T03:07:26.262Z,1.8
2022-10-15T03:08:34.535Z,2.1
2022-10-15T03:09:42.848Z,2.1
2022-10-15T03:10:51.168Z,2.1
2022-10-15T03:11:59.696Z,2
2022-10-15T03:13:08.016Z,2
2022-10-15T03:14:16.362Z,2
2022-10-15T03:15:24.838Z,1.6
2022-10-15T03:16:33.159Z,1.6
2022-10-15T03:17:41.509Z,1.6
2022-10-15T03:18:50.001Z,1.6
2022-10-15T03:19:58.322Z,1.6
2022-10-15T03:21:06.642Z,1.6
2022-10-15T03:22:15.168Z,1.8
2022-10-15T03:23:23.541Z,1.8
2022-10-15T03:24:31.802Z,1.8
2022-10-15T03:25:40.342Z,1.6
2022-10-15T03:26:48.672Z,1.6
2022-10-15T03:27:56.998Z,1.6
2022-10-15T03:29:05.540Z,1.7
2022-10-15T03:30:13.849Z,1.7
2022-10-15T03:31:22.190Z,1.7
2022-10-15T03:32:31.985Z,1.4
2022-10-15T03:33:39.062Z,1.4
2022-10-15T03:34:47.373Z,1.4
2022-10-15T03:35:55.935Z,1.3
2022-10-15T03:37:04.252Z,1.3
2022-10-15T03:38:12.599Z,1.3
2022-10-15T03:39:21.118Z,1.4
2022-10-15T03:40:29.459Z,1.4
2022-10-15T03:41:37.819Z,1.4
2022-10-15T03:42:46.319Z,1.2
2022-10-15T03:43:54.633Z,1.2
2022-10-15T03:45:02.978Z,1.2
2022-10-15T03:46:11.514Z,1.2
2022-10-15T03:47:19.844Z,1.2
2022-10-15T03:48:28.162Z,1.2
2022-10-15T03:49:36.720Z,0.9
2022-10-15T03:51:53.351Z,0.9
2022-10-15T03:53:01.877Z,0.9
2022-10-15T03:54:10.197Z,0.9
2022-10-15T03:55:18.533Z,0.9
2022-10-15T03:56:27.071Z,0.9
2022-10-15T03:57:35.416Z,0.9
2022-10-15T03:58:43.721Z,0.9
2022-10-15T03:59:52.259Z,0.8
2022-10-15T04:01:00.626Z,0.8
2022-10-15T04:02:08.895Z,0.8
2022-10-15T04:03:17.429Z,0.6
2022-10-15T04:04:25.756Z,0.6
2022-10-15T04:05:34.110Z,0.6
2022-10-15T04:06:42.606Z,0.6
2022-10-15T04:07:50.944Z,0.6
2022-10-15T04:08:59.268Z,0.6
2022-10-15T04:10:07.818Z,0.7
2022-10-15T04:11:16.137Z,0.7
2022-10-15T04:12:24.778Z,0.7
2022-10-15T04:13:32.980Z,0.8
2022-10-15T04:14:41.303Z,0.8
2022-10-15T04:15:49.646Z,0.8
2022-10-15T04:16:58.173Z,0.7
2022-10-15T04:18:06.503Z,0.7
2022-10-15T04:19:14.820Z,0.7
2022-10-15T04:20:23.368Z,0.7
2022-10-15T04:21:31.885Z,0.7
2022-10-15T04:22:40.015Z,0.7
2022-10-15T04:23:48.551Z,1.1
2022-10-15T04:24:56.875Z,1.1
2022-10-15T04:26:05.201Z,1.1
2022-10-15T04:28:22.052Z,0.8
2022-10-15T04:29:30.371Z,0.8
2022-10-15T04:30:38.918Z,1.2
2022-10-15T04:31:47.235Z,1.2
2022-10-15T04:32:55.557Z,1.2
2022-10-15T04:34:04.079Z,0.9
2022-10-15T04:35:12.419Z,0.9
2022-10-15T04:36:20.784Z,0.9
2022-10-15T04:37:29.277Z,0.6
2022-10-15T04:38:37.581Z,0.6
2022-10-15T04:39:45.899Z,0.6
2022-10-15T04:40:54.437Z,0.7
2022-10-15T04:42:02.751Z,0.7
2022-10-15T04:43:11.093Z,0.7
2022-10-15T04:44:19.616Z,0.5
2022-10-15T04:45:27.958Z,0.5
2022-10-15T04:46:36.282Z,0.5
2022-10-15T04:47:44.817Z,0.5
2022-10-15T04:48:53.127Z,0.5
2022-10-15T04:50:01.479Z,0.5
2022-10-15T04:51:10.038Z,58.900002
2022-10-15T04:52:18.331Z,58.900002
2022-10-15T04:53:26.698Z,58.900002
2022-10-15T04:54:35.214Z,135.1
2022-10-15T04:55:43.554Z,135.1
2022-10-15T04:56:51.877Z,135.1
2022-10-15T04:58:00.399Z,27.9
2022-10-15T04:59:08.717Z,27.9
2022-10-15T05:00:17.055Z,27.9
2022-10-15T05:01:25.574Z,6.6
2022-10-15T05:02:33.959Z,6.6
2022-10-15T05:03:44.007Z,6.6
2022-10-15T05:04:50.746Z,7.6
2022-10-15T05:05:59.061Z,7.6
2022-10-15T05:07:07.392Z,7.6
2022-10-15T05:08:15.944Z,0.8
2022-10-15T05:09:24.303Z,0.8
2022-10-15T05:10:32.601Z,0.8
2022-10-15T05:11:41.128Z,0.9
2022-10-15T05:12:50.410Z,0.9
2022-10-15T05:13:57.754Z,0.9
2022-10-15T05:15:06.301Z,0.9
2022-10-15T05:16:14.635Z,0.9
2022-10-15T05:17:23.211Z,0.9
2022-10-15T05:18:31.483Z,0.6
2022-10-15T05:19:39.805Z,0.6
2022-10-15T05:20:48.132Z,0.6
2022-10-15T05:21:56.671Z,0.6
2022-10-15T05:23:04.981Z,0.6
2022-10-15T05:24:13.307Z,0.6
2022-10-15T05:25:21.867Z,1
2022-10-15T05:26:30.162Z,1
2022-10-15T05:27:38.477Z,1
2022-10-15T05:28:47.064Z,1.3
2022-10-15T05:29:55.337Z,1.3
2022-10-15T05:31:03.681Z,1.3
2022-10-15T05:32:12.204Z,1.2
2022-10-15T05:33:20.501Z,1.2
2022-10-15T05:34:28.833Z,1.2
2022-10-15T05:35:37.363Z,2.4
2022-10-15T05:36:45.680Z,2.4
2022-10-15T05:37:54.064Z,2.4
2022-10-15T05:39:02.577Z,1.5
2022-10-15T05:40:10.902Z,1.5
2022-10-15T05:41:19.250Z,1.5
2022-10-15T05:42:27.773Z,1
2022-10-15T05:43:37.406Z,1
2022-10-15T05:44:44.401Z,1
2022-10-15T05:45:52.918Z,0.8
2022-10-15T05:47:01.233Z,0.8
2022-10-15T05:48:09.558Z,0.8
2022-10-15T05:49:18.087Z,0.9
2022-10-15T05:50:26.438Z,0.9
2022-10-15T05:51:34.775Z,0.9
2022-10-15T05:52:43.294Z,0.9
2022-10-15T05:53:51.642Z,0.9
2022-10-15T05:54:59.970Z,0.9
2022-10-15T05:56:08.497Z,0.7
2022-10-15T05:57:16.844Z,0.7
2022-10-15T05:58:25.173Z,0.7
2022-10-15T05:59:33.728Z,0.9
2022-10-15T06:00:42.063Z,0.9
2022-10-15T06:01:50.490Z,0.9
2022-10-15T06:02:58.942Z,0.9
2022-10-15T06:04:07.260Z,0.9
2022-10-15T06:05:15.581Z,0.9
2022-10-15T06:06:24.106Z,0.8
2022-10-15T06:07:32.510Z,0.8
2022-10-15T06:08:40.822Z,0.8
2022-10-15T06:09:49.399Z,0.8
2022-10-15T06:10:57.703Z,0.8
2022-10-15T06:12:06.050Z,0.8
2022-10-15T06:13:14.671Z,0.6
2022-10-15T06:14:22.927Z,0.6
2022-10-15T06:15:31.247Z,0.6
2022-10-15T06:16:39.780Z,0.7
2022-10-15T06:17:48.115Z,0.7
2022-10-15T06:18:56.455Z,0.7
2022-10-15T06:20:04.977Z,0.4
2022-10-15T06:21:13.291Z,0.4
2022-10-15T06:22:21.601Z,0.4
2022-10-15T06:23:30.126Z,0.5
2022-10-15T06:24:38.462Z,0.5
2022-10-15T06:25:46.773Z,0.5
2022-10-15T06:26:55.289Z,0.5
2022-10-15T06:28:03.602Z,0.5
2022-10-15T06:29:11.938Z,0.5
2022-10-15T06:30:20.448Z,0.4
2022-10-15T06:31:28.776Z,0.4
2022-10-15T06:32:37.111Z,0.4
2022-10-15T06:33:45.646Z,0.5
2022-10-15T06:34:53.996Z,0.5
2022-10-15T06:36:02.293Z,0.5
2022-10-15T06:37:10.821Z,0.5
2022-10-15T06:38:19.124Z,0.5
2022-10-15T06:39:27.453Z,0.5
2022-10-15T06:40:35.965Z,0.7
2022-10-15T06:41:44.291Z,0.7
2022-10-15T06:42:52.598Z,0.7
2022-10-15T06:44:01.147Z,0.6
2022-10-15T06:45:09.464Z,0.6
2022-10-15T06:46:17.800Z,0.6
2022-10-15T06:47:26.643Z,0.6
2022-10-15T06:48:34.667Z,0.6
2022-10-15T06:49:43.023Z,0.6
2022-10-15T06:50:51.608Z,0.3
2022-10-15T06:52:02.514Z,0.3
2022-10-15T06:53:08.308Z,0.3
2022-10-15T06:54:16.815Z,0.2
2022-10-15T06:55:25.137Z,0.2
2022-10-15T06:56:33.442Z,0.2
2022-10-15T06:57:42.000Z,0.2
2022-10-15T06:58:50.787Z,0.2
2022-10-15T06:59:59.111Z,0.2
2022-10-15T07:01:07.657Z,0.4
2022-10-15T07:02:15.937Z,0.4
2022-10-15T07:03:24.256Z,0.4
2022-10-15T07:04:32.789Z,2.4
2022-10-15T07:05:41.096Z,2.4
2022-10-15T07:06:49.422Z,2.4
2022-10-15T07:07:57.943Z,10.3
2022-10-15T07:09:06.276Z,10.3
2022-10-15T07:10:14.623Z,10.3
2022-10-15T07:11:23.147Z,0.3
2022-10-15T07:12:31.465Z,0.3
2022-10-15T07:13:39.787Z,0.3
2022-10-15T07:14:48.322Z,0.7
2022-10-15T07:15:56.649Z,0.7
2022-10-15T07:17:04.997Z,0.7
2022-10-15T07:18:13.497Z,1
2022-10-15T07:19:21.835Z,1
2022-10-15T07:20:30.145Z,1
2022-10-15T07:21:38.677Z,0.3
2022-10-15T07:22:47.010Z,0.3
2022-10-15T07:23:56.065Z,0.3
2022-10-15T07:25:04.608Z,0.5
2022-10-15T07:26:12.935Z,0.5
2022-10-15T07:27:21.252Z,0.5
2022-10-15T07:28:29.839Z,0.4
2022-10-15T07:29:38.105Z,0.4
2022-10-15T07:30:46.426Z,0.4
2022-10-15T07:31:55.118Z,0.6
2022-10-15T07:33:03.464Z,0.6
2022-10-15T07:34:11.790Z,0.6
2022-10-15T07:35:20.321Z,0.5
2022-10-15T07:36:28.641Z,0.5
2022-10-15T07:37:36.960Z,0.5
2022-10-15T07:38:45.480Z,0.7
2022-10-15T07:39:53.810Z,0.7
2022-10-15T07:41:02.127Z,0.7
2022-10-15T07:42:10.666Z,0.4
2022-10-15T07:43:18.976Z,0.4
2022-10-15T07:44:27.297Z,0.4
2022-10-15T07:45:35.850Z,0.9
2022-10-15T07:46:44.158Z,0.9
2022-10-15T07:47:52.478Z,0.9
2022-10-15T07:49:01.036Z,2.2
2022-10-15T07:50:09.329Z,2.2
2022-10-15T07:52:26.444Z,0.9
2022-10-15T07:53:34.520Z,0.9
2022-10-15T07:54:42.833Z,0.9
2022-10-15T07:55:51.370Z,0.4
2022-10-15T07:56:59.713Z,0.4
2022-10-15T07:58:08.043Z,0.4
2022-10-15T07:59:16.570Z,1.3
2022-10-15T08:00:25.022Z,1.3
2022-10-15T08:01:33.238Z,1.3
2022-10-15T08:02:41.775Z,2.3
2022-10-15T08:03:50.106Z,2.3
2022-10-15T08:04:58.448Z,2.3
2022-10-15T08:06:06.945Z,8
2022-10-15T08:07:15.274Z,8
2022-10-15T08:08:23.601Z,8
2022-10-15T08:09:32.134Z,2.7
2022-10-15T08:10:40.445Z,2.7
2022-10-15T08:11:48.765Z,2.7
2022-10-15T08:12:57.275Z,3.7
2022-10-15T08:14:05.594Z,3.7
2022-10-15T08:15:13.911Z,3.7
2022-10-15T08:16:22.435Z,2.5
2022-10-15T08:17:30.756Z,2.5
2022-10-15T08:18:39.101Z,2.5
2022-10-15T08:19:47.606Z,7.2
2022-10-15T08:20:55.956Z,7.2
2022-10-15T08:22:04.301Z,7.2
2022-10-15T08:23:12.850Z,3.4
2022-10-15T08:24:21.184Z,3.4
2022-10-15T08:25:29.511Z,3.4
2022-10-15T08:26:38.045Z,1.6
2022-10-15T08:27:46.381Z,1.6
2022-10-15T08:28:54.796Z,1.6
2022-10-15T08:30:03.268Z,2.9
2022-10-15T08:31:11.603Z,2.9
2022-10-15T08:32:19.939Z,2.9
2022-10-15T08:33:28.479Z,6.7
2022-10-15T08:34:36.801Z,6.7
2022-10-15T08:35:45.135Z,6.7
2022-10-15T08:36:53.701Z,5.7
2022-10-15T08:38:02.012Z,5.7
2022-10-15T08:39:10.336Z,5.7
2022-10-15T08:40:18.856Z,1
2022-10-15T08:41:27.180Z,1
2022-10-15T08:42:35.487Z,1
2022-10-15T08:43:44.035Z,5.2
2022-10-15T08:44:52.359Z,5.2
2022-10-15T08:46:00.675Z,5.2
2022-10-15T08:47:09.192Z,2.6
2022-10-15T08:48:17.529Z,2.6
2022-10-15T08:49:25.856Z,2.6
2022-10-15T08:50:34.377Z,0.8
2022-10-15T08:51:42.705Z,0.8
2022-10-15T08:52:51.058Z,0.8
2022-10-15T08:53:59.568Z,1.1
2022-10-15T08:55:07.880Z,1.1
2022-10-15T08:56:16.190Z,1.1
2022-10-15T08:57:25.068Z,3.2
2022-10-15T08:58:35.726Z,3.2
2022-10-15T08:59:41.417Z,3.2
2022-10-15T09:00:49.963Z,20.200001
2022-10-15T09:01:58.277Z,20.200001
2022-10-15T09:03:06.696Z,20.200001
2022-10-15T09:04:15.203Z,1.2
2022-10-15T09:05:23.446Z,1.2
2022-10-15T09:06:31.771Z,1.2
2022-10-15T09:07:40.319Z,3.3
2022-10-15T09:08:48.725Z,3.3
2022-10-15T09:09:56.979Z,3.3
2022-10-15T09:11:05.506Z,1.6
2022-10-15T09:12:13.826Z,1.6
2022-10-15T09:13:22.165Z,1.6
2022-10-15T09:14:30.692Z,2.1
2022-10-15T09:15:39.014Z,2.1
2022-10-15T09:16:47.345Z,2.1
2022-10-15T09:17:55.878Z,4
2022-10-15T09:19:04.217Z,4
2022-10-15T09:20:12.525Z,4
2022-10-15T09:21:21.062Z,2.8
2022-10-15T09:22:29.386Z,2.8
2022-10-15T09:23:37.723Z,2.8
2022-10-15T09:24:46.261Z,4.6
2022-10-15T09:25:54.568Z,4.6
2022-10-15T09:27:02.882Z,4.6
2022-10-15T09:28:11.451Z,2.8
2022-10-15T09:29:19.768Z,2.8
2022-10-15T09:30:28.083Z,2.8
2022-10-15T09:31:36.606Z,2.1
2022-10-15T09:32:44.930Z,2.1
2022-10-15T09:33:53.254Z,2.1
2022-10-15T09:35:01.802Z,2.1
2022-10-15T09:36:10.133Z,2.1
2022-10-15T09:37:18.463Z,2.1
2022-10-15T09:38:26.994Z,1.5
2022-10-15T09:39:35.325Z,1.5
2022-10-15T09:40:43.676Z,1.5
2022-10-15T09:41:52.211Z,1.3
2022-10-15T09:43:00.532Z,1.3
2022-10-15T09:44:08.855Z,1.3
2022-10-15T09:45:17.376Z,0.9
2022-10-15T09:46:25.697Z,0.9
2022-10-15T09:47:34.012Z,0.9
2022-10-15T09:48:42.536Z,2.4
2022-10-15T09:49:50.852Z,2.4
2022-10-15T09:50:59.167Z,2.4
2022-10-15T09:52:07.715Z,3.5
2022-10-15T09:53:16.027Z,3.5
2022-10-15T09:54:24.342Z,3.5
2022-10-15T09:55:32.860Z,1.6
2022-10-15T09:56:41.282Z,1.6
2022-10-15T09:57:49.511Z,1.6
2022-10-15T09:58:58.060Z,1.2
2022-10-15T10:00:06.373Z,1.2
2022-10-15T10:01:14.681Z,1.2
2022-10-15T10:02:23.595Z,1.8
2022-10-15T10:03:31.545Z,1.8
2022-10-15T10:04:39.870Z,1.8
2022-10-15T10:05:48.388Z,9.7
2022-10-15T10:06:56.720Z,9.7
2022-10-15T10:08:05.042Z,9.7
2022-10-15T10:09:13.583Z,1.2
2022-10-15T10:10:21.895Z,1.2
2022-10-15T10:11:30.214Z,1.2
2022-10-15T10:12:38.766Z,0.8
2022-10-15T10:13:47.055Z,0.8
2022-10-15T10:14:55.373Z,0.8
2022-10-15T10:16:03.891Z,2.4
2022-10-15T10:17:12.234Z,2.4
2022-10-15T10:18:20.543Z,2.4
2022-10-15T10:19:29.067Z,2.8
2022-10-15T10:20:37.384Z,2.8
2022-10-15T10:21:45.717Z,2.8
2022-10-15T10:22:54.252Z,0.9
2022-10-15T10:24:02.567Z,0.9
2022-10-15T10:25:10.882Z,0.9
2022-10-15T10:26:19.411Z,5.7
2022-10-15T10:27:27.963Z,5.7
2022-10-15T10:28:38.281Z,5.7
2022-10-15T10:29:44.606Z,3.5
2022-10-15T10:30:52.903Z,3.5
2022-10-15T10:32:01.227Z,3.5
2022-10-15T10:33:09.764Z,0.9
2022-10-15T10:34:18.091Z,0.9
2022-10-15T10:35:26.405Z,0.9
2022-10-15T10:36:35.310Z,2.5
2022-10-15T10:37:43.276Z,2.5
2022-10-15T10:38:51.577Z,2.5
2022-10-15T10:40:00.127Z,38.099998
2022-10-15T10:41:08.430Z,38.099998
2022-10-15T10:42:16.756Z,38.099998
2022-10-15T10:43:25.302Z,4.2
2022-10-15T10:44:33.625Z,4.2
2022-10-15T10:45:41.912Z,4.2
2022-10-15T10:46:50.441Z,1.4
2022-10-15T10:47:58.763Z,1.4
2022-10-15T10:49:07.090Z,1.4
2022-10-15T10:50:15.612Z,3.8
2022-10-15T10:51:23.955Z,3.8
2022-10-15T10:52:32.257Z,3.8
2022-10-15T10:53:40.790Z,2.1
2022-10-15T10:54:49.104Z,2.1
2022-10-15T10:55:57.414Z,2.1
2022-10-15T10:57:05.948Z,1.8
2022-10-15T10:58:14.271Z,1.8
2022-10-15T10:59:22.590Z,1.8
2022-10-15T11:00:31.144Z,2.2
2022-10-15T11:01:39.427Z,2.2
2022-10-15T11:02:47.747Z,2.2
2022-10-15T11:03:56.411Z,3.5
2022-10-15T11:05:04.588Z,3.5
2022-10-15T11:06:12.908Z,3.5
2022-10-15T11:07:21.653Z,2.1
2022-10-15T11:08:29.757Z,2.1
2022-10-15T11:09:38.074Z,2.1
2022-10-15T11:10:46.594Z,3.8
2022-10-15T11:12:12.592Z,3.8
2022-10-15T11:14:49.493Z,3.9
2022-10-15T11:15:58.485Z,3.9
2022-10-15T11:17:06.772Z,3.9
2022-10-15T11:18:15.290Z,1.8
2022-10-15T11:19:44.156Z,1.8
2022-10-15T11:20:48.508Z,1.8
2022-10-15T11:21:40.459Z,1.8
2022-10-15T11:22:48.773Z,1.8
2022-10-15T11:23:57.091Z,1.8
2022-10-15T11:25:07.394Z,1.7
2022-10-15T11:26:13.938Z,1.7
2022-10-15T11:27:22.259Z,1.7
2022-10-15T11:28:30.827Z,1.7
2022-10-15T11:29:39.093Z,1.7
2022-10-15T11:30:47.413Z,1.7
2022-10-15T11:32:03.107Z,1.5
2022-10-15T11:33:08.775Z,1.5
2022-10-15T11:34:12.581Z,1.5
2022-10-15T11:35:34.714Z,1.6
2022-10-15T11:36:29.432Z,1.6
2022-10-15T11:37:37.742Z,1.6
2022-10-15T11:38:46.272Z,1.7
2022-10-15T11:39:54.592Z,1.7
2022-10-15T11:41:02.908Z,1.7
2022-10-15T11:42:11.430Z,1.5
2022-10-15T11:43:19.735Z,1.5
2022-10-15T11:44:28.051Z,1.5
2022-10-15T11:45:36.580Z,1.7
2022-10-15T11:46:45.806Z,1.7
2022-10-15T11:47:53.227Z,1.7
2022-10-15T11:49:01.732Z,1.3
2022-10-15T11:50:10.107Z,1.3
2022-10-15T11:51:31.850Z,1.3
2022-10-15T11:52:40.385Z,1.3
2022-10-15T11:53:48.710Z,1.3
2022-10-15T11:55:02.498Z,1.3
2022-10-15T11:56:11.027Z,1.2
2022-10-15T11:57:19.345Z,1.2
2022-10-15T11:58:27.666Z,1.2
2022-10-15T11:59:36.195Z,1.1
2022-10-15T12:00:44.522Z,1.1
2022-10-15T12:01:52.826Z,1.1
2022-10-15T12:03:01.432Z,1.1
2022-10-15T12:04:09.721Z,1.1
2022-10-15T12:05:17.993Z,1.1
2022-10-15T12:06:26.525Z,1.1
2022-10-15T12:07:34.838Z,1.1
2022-10-15T12:08:43.156Z,1.1
2022-10-15T12:09:51.675Z,0.9
2022-10-15T12:10:59.993Z,0.9
2022-10-15T12:12:08.304Z,0.9
2022-10-15T12:13:16.833Z,1.2
2022-10-15T12:14:25.133Z,1.2
2022-10-15T12:15:33.447Z,1.2
2022-10-15T12:16:41.966Z,1
2022-10-15T12:17:50.289Z,1
2022-10-15T12:18:58.623Z,1
2022-10-15T12:20:07.145Z,1
2022-10-15T12:21:15.464Z,1
2022-10-15T12:22:23.907Z,1
2022-10-15T12:23:32.299Z,1.1
2022-10-15T12:24:40.759Z,1.1
2022-10-15T12:25:49.095Z,1.1
2022-10-15T12:26:57.620Z,1.3
2022-10-15T12:28:05.938Z,1.3
2022-10-15T12:29:14.256Z,1.3
2022-10-15T12:30:22.790Z,1.8
2022-10-15T12:31:33.951Z,1.8
2022-10-15T12:32:39.439Z,1.8
2022-10-15T12:33:47.980Z,1
2022-10-15T12:34:56.378Z,1
2022-10-15T12:36:04.665Z,1
2022-10-15T12:37:13.198Z,1.6
2022-10-15T12:38:21.521Z,1.6
2022-10-15T12:39:59.824Z,1.6
2022-10-15T12:40:38.398Z,21.6
2022-10-15T12:41:46.741Z,21.6
2022-10-15T12:42:55.056Z,21.6
2022-10-15T12:44:03.586Z,2.9
2022-10-15T12:45:11.920Z,2.9
2022-10-15T12:46:20.239Z,2.9
2022-10-15T12:47:28.787Z,2.1
2022-10-15T12:48:37.100Z,2.1
2022-10-15T12:49:45.434Z,2.1
2022-10-15T12:50:54.001Z,1
2022-10-15T12:52:02.292Z,1
2022-10-15T12:53:10.600Z,1
2022-10-15T12:54:19.144Z,2.7
2022-10-15T12:55:27.470Z,2.7
2022-10-15T12:56:35.797Z,2.7
2022-10-15T12:57:44.323Z,1.6
2022-10-15T12:58:52.644Z,1.6
2022-10-15T13:00:00.990Z,1.6
2022-10-15T13:01:09.510Z,1.5
2022-10-15T13:02:17.818Z,1.5
2022-10-15T13:03:26.141Z,1.5
2022-10-15T13:04:34.675Z,11.5
2022-10-15T13:05:42.996Z,11.5
2022-10-15T13:06:51.340Z,11.5
2022-10-15T13:07:59.862Z,1.5
2022-10-15T13:09:08.189Z,1.5
2022-10-15T13:10:16.515Z,1.5
2022-10-15T13:11:25.043Z,1.7
2022-10-15T13:12:33.361Z,1.7
2022-10-15T13:13:41.691Z,1.7
2022-10-15T13:14:50.230Z,1.3
2022-10-15T13:15:58.553Z,1.3
2022-10-15T13:17:06.867Z,1.3
2022-10-15T13:18:15.407Z,1.5
2022-10-15T13:19:23.860Z,1.5
2022-10-15T13:20:32.172Z,1.5
2022-10-15T13:21:40.708Z,9.2
2022-10-15T13:22:49.070Z,9.2
2022-10-15T13:23:57.398Z,9.2
2022-10-15T13:25:05.952Z,1.4
2022-10-15T13:26:14.258Z,1.4
2022-10-15T13:27:22.578Z,1.4
2022-10-15T13:28:31.127Z,1.8
2022-10-15T13:29:39.422Z,1.8
2022-10-15T13:30:47.739Z,1.8
2022-10-15T13:31:56.264Z,1.2
2022-10-15T13:33:04.567Z,1.2
2022-10-15T13:34:12.907Z,1.2
2022-10-15T13:35:21.427Z,1.2
2022-10-15T13:36:29.742Z,1.2
2022-10-15T13:37:38.063Z,1.2
2022-10-15T13:38:47.401Z,1.1
2022-10-15T13:39:54.953Z,1.1
2022-10-15T13:41:03.289Z,1.1
2022-10-15T13:42:11.820Z,1.3
2022-10-15T13:43:20.163Z,1.3
2022-10-15T13:44:28.489Z,1.3
2022-10-15T13:45:37.030Z,1.1
2022-10-15T13:46:45.368Z,1.1
2022-10-15T13:47:53.707Z,1.1
2022-10-15T13:49:02.259Z,1.1
2022-10-15T13:50:10.690Z,1.1
2022-10-15T13:51:18.916Z,1.1
2022-10-15T13:52:27.495Z,0.9
2022-10-15T13:53:35.806Z,0.9
2022-10-15T13:54:44.182Z,0.9
2022-10-15T13:55:52.679Z,0.9
2022-10-15T13:57:01.018Z,0.9
2022-10-15T13:58:09.335Z,0.9
2022-10-15T13:59:17.893Z,1.2
2022-10-15T14:00:26.240Z,1.2
2022-10-15T14:01:34.547Z,1.2
2022-10-15T14:02:43.076Z,1
2022-10-15T14:03:51.421Z,1
2022-10-15T14:04:59.759Z,1
2022-10-15T14:06:08.321Z,1
2022-10-15T14:07:16.705Z,1
2022-10-15T14:08:25.101Z,1
2022-10-15T14:09:33.649Z,1.1
2022-10-15T14:10:42.008Z,1.1
2022-10-15T14:11:50.378Z,1.1
2022-10-15T14:12:58.927Z,1.1
2022-10-15T14:14:07.730Z,1.1
2022-10-15T14:15:17.355Z,1.1
2022-10-15T14:16:27.254Z,2.4
2022-10-15T14:17:35.614Z,2.4
2022-10-15T14:18:46.563Z,2.4
2022-10-15T14:20:08.198Z,1.3
2022-10-15T14:21:00.852Z,1.3
2022-10-15T14:22:09.165Z,1.3
2022-10-15T14:23:17.709Z,2.5
2022-10-15T14:24:26.045Z,2.5
2022-10-15T14:25:34.371Z,2.5
2022-10-15T14:26:42.916Z,3.3
2022-10-15T14:27:51.214Z,3.3
2022-10-15T14:28:59.591Z,3.3
2022-10-15T15:03:10.972Z,0
2022-10-15T15:04:19.161Z,0
2022-10-15T15:05:27.510Z,0
2022-10-15T15:06:36.041Z,3
2022-10-15T15:07:44.342Z,3
2022-10-15T15:08:52.677Z,3
2022-10-15T15:10:01.217Z,1.9
2022-10-15T15:11:09.540Z,1.9
2022-10-15T15:12:17.878Z,1.9
2022-10-15T15:13:26.421Z,1.4
2022-10-15T15:14:34.797Z,1.4
2022-10-15T15:15:43.131Z,1.4
2022-10-15T15:16:51.637Z,1.9
2022-10-15T15:17:59.959Z,1.9
2022-10-15T15:19:08.302Z,1.9
2022-10-15T15:20:16.806Z,1.1
2022-10-15T15:21:25.126Z,1.1
2022-10-15T15:22:33.437Z,1.1
2022-10-15T15:23:41.978Z,2.4
2022-10-15T15:24:50.294Z,2.4
2022-10-15T15:25:58.620Z,2.4
2022-10-15T15:27:07.144Z,1.8
2022-10-15T15:28:15.476Z,1.8
2022-10-15T15:29:23.821Z,1.8
2022-10-15T15:30:32.317Z,2.3
2022-10-15T15:31:40.633Z,2.3
2022-10-15T15:32:48.970Z,2.3
2022-10-15T15:33:57.501Z,1.7
2022-10-15T15:35:05.848Z,1.7
2022-10-15T15:36:16.407Z,1.7
2022-10-15T15:37:22.661Z,1.4
2022-10-15T15:38:31.099Z,1.4
2022-10-15T15:39:39.310Z,1.4
2022-10-15T15:40:47.834Z,1.3
2022-10-15T15:41:56.157Z,1.3
2022-10-15T15:43:04.481Z,1.3
2022-10-15T15:44:13.011Z,1.3
2022-10-15T15:45:21.314Z,1.3
2022-10-15T15:46:29.627Z,1.3
2022-10-15T15:47:38.153Z,2.5
2022-10-15T15:48:46.476Z,2.5
2022-10-15T15:49:54.793Z,2.5
2022-10-15T15:51:03.381Z,1.5
2022-10-15T15:52:11.652Z,1.5
2022-10-15T15:53:20.001Z,1.5
2022-10-15T15:54:28.514Z,1.4
2022-10-15T15:55:36.841Z,1.4
2022-10-15T15:56:45.184Z,1.4
2022-10-15T15:57:53.707Z,1.4
2022-10-15T15:59:02.065Z,1.4
2022-10-15T16:00:10.414Z,1.4
2022-10-15T16:01:18.980Z,1.2
2022-10-15T16:02:27.244Z,1.2
2022-10-15T16:03:35.560Z,1.2
2022-10-15T16:04:44.079Z,1.2
2022-10-15T16:05:52.400Z,1.2
2022-10-15T16:07:00.730Z,1.2
2022-10-15T16:08:09.248Z,1.4
2022-10-15T16:09:17.576Z,1.4
2022-10-15T16:10:25.892Z,1.4
2022-10-15T16:11:34.446Z,1.1
2022-10-15T16:12:42.788Z,1.1
2022-10-15T16:13:51.110Z,1.1
2022-10-15T16:14:59.647Z,1
2022-10-15T16:16:07.966Z,1
2022-10-15T16:17:16.281Z,1
2022-10-15T16:18:24.815Z,1.3
2022-10-15T16:19:33.127Z,1.3
2022-10-15T16:20:44.946Z,1.3
2022-10-15T16:21:49.973Z,1.8
2022-10-15T16:22:58.339Z,1.8